createdAt,value
2018-02-15T00:01:41.434Z,127.03
2018-02-15T00:04:09.818Z,131.60
2018-02-15T00:06:38.230Z,139.13
2018-02-15T00:09:07.014Z,133.73
2018-02-15T00:11:35.887Z,136.87
2018-02-15T00:14:04.255Z,132.57
2018-02-15T00:16:32.632Z,134.53
2018-02-15T00:19:01.019Z,138.27
2018-02-15T00:21:29.389Z,124.43
2018-02-15T00:23:57.829Z,150.03
2018-02-15T00:26:26.211Z,131.07
2018-02-15T00:28:54.563Z,121.43
2018-02-15T00:31:23.478Z,124.30
2018-02-15T00:33:51.852Z,134.63
2018-02-15T00:36:20.228Z,149.27
2018-02-15T00:38:48.599Z,117.87
2018-02-15T00:41:16.988Z,106.30
2018-02-15T00:43:45.371Z,120.87
2018-02-15T00:46:13.731Z,127.83
2018-02-15T00:48:42.508Z,116.43
2018-02-15T00:51:11.283Z,112.27
2018-02-15T00:53:39.685Z,116.20
2018-02-15T00:56:08.447Z,108.43
2018-02-15T00:58:36.847Z,118.23
2018-02-15T01:01:05.706Z,126.87
2018-02-15T01:03:34.066Z,106.50
2018-02-15T01:06:02.960Z,126.10
2018-02-15T01:08:31.331Z,107.97
2018-02-15T01:10:59.998Z,129.10
2018-02-15T01:13:28.391Z,125.77
2018-02-15T01:15:56.743Z,126.30
2018-02-15T01:18:25.106Z,134.03
2018-02-15T01:20:53.960Z,112.97
2018-02-15T01:23:22.437Z,119.57
2018-02-15T01:25:50.844Z,139.00
2018-02-15T01:28:19.609Z,136.00
2018-02-15T01:30:48.077Z,125.47
2018-02-15T01:33:17.117Z,121.30
2018-02-15T01:35:45.944Z,129.27
2018-02-15T01:38:14.336Z,127.80
2018-02-15T01:40:42.688Z,114.03
2018-02-15T01:43:11.095Z,123.53
2018-02-15T01:45:39.484Z,123.80
2018-02-15T01:48:07.933Z,129.23
2018-02-15T01:50:36.293Z,122.50
2018-02-15T01:53:04.656Z,132.40
2018-02-15T01:55:33.495Z,135.53
2018-02-15T01:58:01.904Z,133.93
2018-02-15T02:00:30.314Z,120.90
2018-02-15T02:02:58.688Z,137.07
2018-02-15T02:05:27.546Z,137.53
2018-02-15T02:07:55.951Z,129.77
2018-02-15T02:10:24.729Z,147.90
2018-02-15T02:12:53.119Z,140.90
2018-02-15T02:15:21.948Z,152.77
2018-02-15T02:17:50.312Z,144.93
2018-02-15T02:20:18.735Z,152.73
2018-02-15T02:22:47.108Z,154.47
2018-02-15T02:25:15.502Z,153.17
2018-02-15T02:27:44.010Z,161.00
2018-02-15T02:30:12.366Z,132.73
2018-02-15T02:32:40.724Z,146.67
2018-02-15T02:35:09.107Z,153.40
2018-02-15T02:37:37.522Z,151.10
2018-02-15T02:40:06.284Z,153.83
2018-02-15T02:42:34.649Z,139.20
2018-02-15T02:45:03.026Z,136.83
2018-02-15T02:47:31.412Z,134.23
2018-02-15T02:49:59.815Z,124.10
2018-02-15T02:52:28.192Z,114.90
2018-02-15T02:54:56.553Z,115.20
2018-02-15T02:57:24.924Z,113.50
2018-02-15T02:59:53.281Z,96.23
2018-02-15T03:02:21.660Z,106.73
2018-02-15T03:04:50.015Z,93.87
2018-02-15T03:07:18.365Z,108.07
2018-02-15T03:09:46.731Z,91.47
2018-02-15T03:12:15.111Z,110.03
2018-02-15T03:14:43.529Z,105.37
2018-02-15T03:17:12.022Z,95.83
2018-02-15T03:19:40.384Z,117.33
2018-02-15T03:22:09.150Z,110.13
2018-02-15T03:24:37.585Z,110.37
2018-02-15T03:27:06.007Z,103.13
2018-02-15T03:29:34.363Z,102.43
2018-02-15T03:32:02.789Z,97.47
2018-02-15T03:34:31.615Z,112.27
2018-02-15T03:36:59.977Z,96.23
2018-02-15T03:39:28.360Z,113.23
2018-02-15T03:41:56.729Z,103.73
2018-02-15T03:44:25.147Z,119.93
2018-02-15T03:46:53.626Z,107.80
2018-02-15T03:49:22.081Z,111.23
2018-02-15T03:51:50.456Z,110.77
2018-02-15T03:54:18.846Z,116.70
2018-02-15T03:56:47.213Z,114.93
2018-02-15T03:59:15.618Z,119.47
2018-02-15T04:01:44.012Z,114.80
2018-02-15T04:04:12.385Z,100.03
2018-02-15T04:06:40.747Z,117.17
2018-02-15T04:09:09.238Z,131.43
2018-02-15T04:11:38.394Z,125.60
2018-02-15T04:14:06.807Z,128.30
2018-02-15T04:16:35.170Z,114.53
2018-02-15T04:19:04.283Z,131.70
2018-02-15T04:21:32.653Z,115.57
2018-02-15T04:24:01.003Z,129.73
2018-02-15T04:26:29.365Z,113.03
2018-02-15T04:28:58.116Z,118.87
2018-02-15T04:31:26.486Z,120.97
2018-02-15T04:33:54.922Z,115.00
2018-02-15T04:36:23.699Z,115.97
2018-02-15T04:38:52.439Z,135.83
2018-02-15T04:41:20.787Z,127.13
2018-02-15T04:43:49.162Z,120.83
2018-02-15T04:46:17.517Z,127.10
2018-02-15T04:48:46.288Z,110.30
2018-02-15T04:51:14.635Z,116.23
2018-02-15T04:53:43.129Z,140.43
2018-02-15T04:56:11.512Z,117.43
2018-02-15T04:58:39.873Z,123.17
2018-02-15T05:01:08.269Z,115.67
2018-02-15T05:03:36.619Z,114.60
2018-02-15T05:06:05.029Z,126.40
2018-02-15T05:08:33.393Z,116.37
2018-02-15T05:11:01.745Z,127.30
2018-02-15T05:13:30.110Z,108.33
2018-02-15T05:15:58.863Z,129.43
2018-02-15T05:18:27.244Z,116.30
2018-02-15T05:20:55.599Z,121.80
2018-02-15T05:23:23.959Z,126.53
2018-02-15T05:25:52.317Z,117.83
2018-02-15T05:28:20.742Z,127.30
2018-02-15T05:30:49.123Z,114.70
2018-02-15T05:33:17.595Z,120.77
2018-02-15T05:35:45.976Z,122.70
2018-02-15T05:38:14.660Z,111.87
2018-02-15T05:40:43.152Z,114.17
2018-02-15T05:43:11.499Z,127.83
2018-02-15T05:45:39.905Z,110.97
2018-02-15T05:48:08.274Z,101.57
2018-02-15T05:50:36.622Z,93.53
2018-02-15T05:53:04.991Z,97.60
2018-02-15T05:55:34.239Z,95.00
2018-02-15T05:58:02.710Z,88.10
2018-02-15T06:00:31.355Z,100.47
2018-02-15T06:02:59.712Z,84.60
2018-02-15T06:05:28.168Z,93.97
2018-02-15T06:07:56.542Z,91.53
2018-02-15T06:10:26.785Z,83.17
2018-02-15T06:12:57.609Z,96.20
2018-02-15T06:15:26.948Z,102.67
2018-02-15T06:17:55.826Z,113.40
2018-02-15T06:20:24.711Z,92.03
2018-02-15T06:22:55.625Z,85.00
2018-02-15T06:25:25.573Z,92.03
2018-02-15T06:27:55.675Z,92.83
2018-02-15T06:30:24.351Z,75.37
2018-02-15T06:32:55.725Z,89.80
2018-02-15T06:35:27.243Z,89.03
2018-02-15T06:37:57.629Z,90.23
2018-02-15T06:40:27.369Z,114.03
2018-02-15T06:42:55.752Z,120.97
2018-02-15T06:45:25.846Z,100.97
2018-02-15T06:47:54.195Z,89.40
2018-02-15T06:50:24.441Z,101.97
2018-02-15T06:52:55.733Z,97.97
2018-02-15T06:55:27.043Z,90.20
2018-02-15T06:57:57.418Z,82.33
2018-02-15T07:00:28.521Z,76.33
2018-02-15T07:02:59.714Z,77.70
2018-02-15T07:05:30.299Z,104.03
2018-02-15T07:08:01.168Z,86.37
2018-02-15T07:10:31.638Z,100.10
2018-02-15T07:13:02.039Z,93.03
2018-02-15T07:15:33.255Z,98.53
2018-02-15T07:18:04.130Z,95.27
2018-02-15T07:20:35.428Z,104.80
2018-02-15T07:23:06.303Z,96.97
2018-02-15T07:25:36.859Z,96.97
2018-02-15T07:28:07.695Z,90.70
2018-02-15T07:30:38.629Z,93.43
2018-02-15T07:33:09.120Z,113.13
2018-02-15T07:35:40.296Z,98.10
2018-02-15T07:38:09.142Z,93.77
2018-02-15T07:40:37.488Z,110.17
2018-02-15T07:43:05.839Z,89.87
2018-02-15T07:45:34.592Z,86.23
2018-02-15T07:48:02.989Z,92.37
2018-02-15T07:50:31.344Z,87.20
2018-02-15T07:52:59.710Z,82.30
2018-02-15T07:55:28.064Z,107.87
2018-02-15T07:57:56.530Z,104.03
2018-02-15T08:00:24.898Z,93.97
2018-02-15T08:02:53.644Z,97.07
2018-02-15T08:05:21.999Z,90.13
2018-02-15T08:07:50.367Z,102.97
2018-02-15T08:10:18.881Z,82.03
2018-02-15T08:12:47.377Z,88.17
2018-02-15T08:15:15.741Z,93.03
2018-02-15T08:17:44.221Z,80.50
2018-02-15T08:20:12.603Z,95.00
2018-02-15T08:22:40.986Z,91.07
2018-02-15T08:25:09.336Z,90.87
2018-02-15T08:27:37.692Z,91.50
2018-02-15T08:30:06.475Z,85.10
2018-02-15T08:32:35.333Z,97.03
2018-02-15T08:35:03.706Z,85.00
2018-02-15T08:37:32.095Z,77.30
2018-02-15T08:40:00.449Z,92.80
2018-02-15T08:42:29.557Z,92.23
2018-02-15T08:44:57.902Z,85.63
2018-02-15T08:47:26.310Z,98.43
2018-02-15T08:49:54.656Z,80.20
2018-02-15T08:52:23.008Z,84.23
2018-02-15T08:54:51.756Z,88.27
2018-02-15T08:57:20.123Z,78.70
2018-02-15T08:59:48.500Z,80.17
2018-02-15T09:02:16.863Z,90.43
2018-02-15T09:04:45.227Z,88.80
2018-02-15T09:07:13.596Z,84.47
2018-02-15T09:09:42.346Z,79.63
2018-02-15T09:12:11.045Z,85.07
2018-02-15T09:14:39.491Z,87.77
2018-02-15T09:17:07.852Z,77.23
2018-02-15T09:19:36.204Z,84.70
2018-02-15T09:22:05.040Z,77.23
2018-02-15T09:24:33.387Z,84.03
2018-02-15T09:27:01.772Z,68.10
2018-02-15T09:29:31.040Z,73.23
2018-02-15T09:31:59.787Z,62.37
2018-02-15T09:34:28.159Z,70.43
2018-02-15T09:36:56.556Z,64.80
2018-02-15T09:39:24.907Z,65.33
2018-02-15T09:41:53.260Z,67.23
2018-02-15T09:44:21.617Z,59.77
2018-02-15T09:46:50.060Z,69.63
2018-02-15T09:49:18.445Z,78.70
2018-02-15T09:51:46.818Z,64.93
2018-02-15T09:54:15.185Z,65.87
2018-02-15T09:56:43.535Z,78.87
2018-02-15T09:59:11.887Z,60.87
2018-02-15T10:01:40.332Z,56.53
2018-02-15T10:04:08.686Z,53.00
2018-02-15T10:06:37.027Z,66.67
2018-02-15T10:09:05.783Z,72.13
2018-02-15T10:11:34.161Z,63.67
2018-02-15T10:14:02.642Z,71.67
2018-02-15T10:16:31.011Z,58.97
2018-02-15T10:18:59.361Z,60.90
2018-02-15T10:21:27.769Z,63.37
2018-02-15T10:23:56.164Z,64.77
2018-02-15T10:26:24.640Z,53.90
2018-02-15T10:28:52.984Z,55.13
2018-02-15T10:31:21.336Z,64.37
2018-02-15T10:33:50.175Z,59.03
2018-02-15T10:36:18.523Z,54.77
2018-02-15T10:38:46.913Z,58.50
2018-02-15T10:41:15.268Z,54.37
2018-02-15T10:43:43.709Z,78.17
2018-02-15T10:46:12.053Z,52.87
2018-02-15T10:48:40.403Z,59.73
2018-02-15T10:51:09.248Z,60.57
2018-02-15T10:53:37.608Z,56.90
2018-02-15T10:56:05.964Z,56.17
2018-02-15T10:58:34.308Z,46.23
2018-02-15T11:01:08.259Z,56.30
2018-02-15T11:03:36.600Z,55.60
2018-02-15T11:06:04.947Z,61.13
2018-02-15T11:08:33.320Z,62.13
2018-02-15T11:11:01.704Z,64.27
2018-02-15T11:13:30.113Z,56.17
2018-02-15T11:15:58.600Z,62.40
2018-02-15T11:18:27.454Z,51.43
2018-02-15T11:20:55.827Z,53.20
2018-02-15T11:23:24.166Z,63.27
2018-02-15T11:25:53.000Z,53.83
2018-02-15T11:28:21.368Z,58.77
2018-02-15T11:30:49.787Z,55.47
2018-02-15T11:33:18.138Z,56.70
2018-02-15T11:35:46.515Z,48.00
2018-02-15T11:38:14.864Z,56.63
2018-02-15T11:40:43.219Z,64.10
2018-02-15T11:43:11.958Z,57.60
2018-02-15T11:45:40.331Z,65.60
2018-02-15T11:48:08.675Z,54.23
2018-02-15T11:50:37.040Z,72.13
2018-02-15T11:53:05.804Z,69.47
2018-02-15T11:55:34.287Z,55.03
2018-02-15T11:58:02.632Z,64.10
2018-02-15T12:00:30.984Z,58.60
2018-02-15T12:02:59.396Z,60.23
2018-02-15T12:05:27.756Z,65.53
2018-02-15T12:07:56.091Z,58.40
2018-02-15T12:10:24.505Z,57.20
2018-02-15T12:12:52.855Z,63.00
2018-02-15T12:15:21.701Z,55.50
2018-02-15T12:17:50.611Z,56.30
2018-02-15T12:20:19.377Z,54.73
2018-02-15T12:22:47.732Z,56.13
2018-02-15T12:25:16.077Z,50.07
2018-02-15T12:27:44.921Z,64.17
2018-02-15T12:30:13.300Z,58.33
2018-02-15T12:32:41.674Z,61.47
2018-02-15T12:35:10.068Z,52.87
2018-02-15T12:37:38.486Z,61.47
2018-02-15T12:40:07.323Z,58.83
2018-02-15T12:42:35.701Z,65.67
2018-02-15T12:45:04.068Z,57.40
2018-02-15T12:47:32.412Z,65.37
2018-02-15T12:50:01.163Z,66.30
2018-02-15T12:52:29.539Z,54.43
2018-02-15T12:54:57.928Z,65.17
2018-02-15T12:57:26.288Z,59.07
2018-02-15T12:59:54.636Z,62.23
2018-02-15T13:02:22.995Z,69.20
2018-02-15T13:04:51.738Z,62.97
2018-02-15T13:07:20.115Z,67.40
2018-02-15T13:09:48.488Z,59.97
2018-02-15T13:12:34.783Z,61.07
2018-02-15T13:15:03.167Z,58.70
2018-02-15T13:17:31.516Z,83.30
2018-02-15T13:20:17.816Z,74.90
2018-02-15T13:22:48.868Z,58.27
2018-02-15T13:25:17.261Z,69.57
2018-02-15T13:28:03.512Z,69.17
2018-02-15T13:30:32.347Z,62.77
2018-02-15T13:33:00.695Z,69.10
2018-02-15T13:35:29.035Z,68.93
2018-02-15T13:37:57.400Z,65.00
2018-02-15T13:40:25.791Z,58.23
2018-02-15T13:42:54.136Z,67.20
2018-02-15T13:45:22.497Z,71.93
2018-02-15T13:47:51.001Z,62.10
2018-02-15T13:50:19.392Z,69.20
2018-02-15T13:52:47.856Z,64.77
2018-02-15T13:55:16.207Z,67.23
2018-02-15T13:57:44.589Z,70.87
2018-02-15T14:00:13.000Z,70.73
2018-02-15T14:02:41.387Z,65.60
2018-02-15T14:05:09.746Z,62.47
2018-02-15T14:07:38.094Z,61.23
2018-02-15T14:10:06.865Z,63.53
2018-02-15T14:12:35.214Z,65.80
2018-02-15T14:15:03.582Z,59.63
2018-02-15T14:17:31.991Z,67.27
2018-02-15T14:20:00.351Z,65.70
2018-02-15T14:22:28.715Z,81.93
2018-02-15T14:24:57.067Z,65.40
2018-02-15T14:27:25.537Z,55.90
2018-02-15T14:29:54.283Z,67.80
2018-02-15T14:32:22.651Z,65.17
2018-02-15T14:34:51.103Z,69.97
2018-02-15T14:37:19.499Z,70.07
2018-02-15T14:39:47.865Z,65.60
2018-02-15T14:42:16.236Z,62.07
2018-02-15T14:44:44.581Z,49.27
2018-02-15T14:47:13.422Z,49.83
2018-02-15T14:49:41.811Z,58.53
2018-02-15T14:52:10.187Z,44.20
2018-02-15T14:54:38.550Z,47.83
2018-02-15T14:57:07.026Z,43.97
2018-02-15T14:59:35.379Z,39.67
2018-02-15T15:02:04.270Z,45.33
2018-02-15T15:04:33.080Z,51.17
2018-02-15T15:07:01.484Z,41.83
2018-02-15T15:09:30.183Z,48.50
2018-02-15T15:11:58.647Z,45.07
2018-02-15T15:14:27.010Z,37.57
2018-02-15T15:16:55.390Z,46.67
2018-02-15T15:19:23.764Z,40.40
2018-02-15T15:21:52.107Z,44.70
2018-02-15T15:24:20.871Z,37.83
2018-02-15T15:26:49.229Z,60.77
2018-02-15T15:29:17.626Z,42.60
2018-02-15T15:31:45.983Z,43.80
2018-02-15T15:34:14.331Z,47.43
2018-02-15T15:36:42.683Z,50.83
2018-02-15T15:39:11.168Z,45.93
2018-02-15T15:41:39.920Z,46.13
2018-02-15T15:44:08.287Z,45.43
2018-02-15T15:46:38.316Z,43.67
2018-02-15T15:49:06.704Z,40.00
2018-02-15T15:51:35.179Z,39.33
2018-02-15T15:54:03.542Z,40.97
2018-02-15T15:56:31.888Z,44.93
2018-02-15T15:59:00.316Z,46.40
2018-02-15T16:01:28.667Z,44.83
2018-02-15T16:03:57.063Z,51.50
2018-02-15T16:06:25.488Z,43.90
2018-02-15T16:08:53.919Z,46.17
2018-02-15T16:11:22.308Z,56.40
2018-02-15T16:13:50.647Z,43.53
2018-02-15T16:16:19.010Z,38.50
2018-02-15T16:18:53.478Z,37.67
2018-02-15T16:21:21.837Z,49.87
2018-02-15T16:23:50.241Z,48.80
2018-02-15T16:26:18.591Z,45.70
2018-02-15T16:28:46.941Z,48.80
2018-02-15T16:31:15.814Z,45.60
2018-02-15T16:33:44.175Z,45.70
2018-02-15T16:36:12.545Z,41.07
2018-02-15T16:38:40.911Z,40.83
2018-02-15T16:41:09.260Z,45.63
2018-02-15T16:43:37.675Z,46.47
2018-02-15T16:46:06.016Z,59.80
2018-02-15T16:48:34.453Z,41.33
2018-02-15T16:51:02.819Z,47.73
2018-02-15T16:53:31.315Z,35.43
2018-02-15T16:55:59.684Z,40.40
2018-02-15T16:58:28.062Z,55.00
2018-02-15T17:00:56.423Z,44.37
2018-02-15T17:03:24.783Z,43.70
2018-02-15T17:05:53.135Z,48.77
2018-02-15T17:08:21.504Z,42.97
2018-02-15T17:10:50.247Z,44.93
2018-02-15T17:13:18.609Z,40.80
2018-02-15T17:15:47.013Z,53.50
2018-02-15T17:18:15.485Z,38.77
2018-02-15T17:20:43.847Z,39.43
2018-02-15T17:23:12.280Z,45.40
2018-02-15T17:25:40.632Z,37.20
2018-02-15T17:28:08.990Z,38.73
2018-02-15T17:30:37.339Z,42.63
2018-02-15T17:33:05.791Z,48.47
2018-02-15T17:35:34.133Z,41.50
2018-02-15T17:38:02.506Z,38.07
2018-02-15T17:40:30.856Z,38.73
2018-02-15T17:42:59.600Z,36.03
2018-02-15T17:45:27.968Z,44.63
2018-02-15T17:47:56.331Z,42.43
2018-02-15T17:50:24.679Z,40.07
2018-02-15T17:52:53.427Z,34.00
2018-02-15T17:55:27.592Z,43.53
2018-02-15T17:57:56.290Z,37.53
2018-02-15T18:00:24.674Z,35.07
2018-02-15T18:02:53.054Z,34.13
2018-02-15T18:05:21.449Z,39.20
2018-02-15T18:07:49.800Z,44.80
2018-02-15T18:10:18.207Z,31.47
2018-02-15T18:12:46.555Z,33.77
2018-02-15T18:15:15.059Z,44.17
2018-02-15T18:17:43.407Z,39.00
2018-02-15T18:20:11.901Z,45.70
2018-02-15T18:22:40.299Z,41.13
2018-02-15T18:25:08.675Z,37.03
2018-02-15T18:27:37.044Z,32.10
2018-02-15T18:30:05.415Z,36.97
2018-02-15T18:32:33.822Z,37.90
2018-02-15T18:35:02.197Z,39.87
2018-02-15T18:37:30.550Z,32.70
2018-02-15T18:39:58.953Z,34.97
2018-02-15T18:42:27.329Z,38.17
2018-02-15T18:44:55.685Z,41.20
2018-02-15T18:47:26.800Z,41.23
2018-02-15T18:49:57.481Z,31.80
2018-02-15T18:52:26.228Z,38.97
2018-02-15T18:54:56.666Z,37.03
2018-02-15T18:57:25.691Z,37.70
2018-02-15T18:59:57.139Z,38.00
2018-02-15T19:02:28.186Z,35.33
2018-02-15T19:04:56.545Z,52.83
2018-02-15T19:07:25.389Z,42.43
2018-02-15T19:09:56.309Z,38.80
2018-02-15T19:12:26.695Z,37.77
2018-02-15T19:14:56.652Z,35.67
2018-02-15T19:17:25.370Z,35.90
2018-02-15T19:19:55.303Z,34.20
2018-02-15T19:22:24.651Z,46.30
2018-02-15T19:24:55.625Z,44.50
2018-02-15T19:27:26.431Z,34.30
2018-02-15T19:29:57.305Z,33.40
2018-02-15T19:32:28.542Z,40.80
2018-02-15T19:34:57.392Z,33.80
2018-02-15T19:37:25.779Z,34.83
2018-02-15T19:39:54.225Z,34.30
2018-02-15T19:42:22.630Z,35.33
2018-02-15T19:44:51.115Z,40.30
2018-02-15T19:47:19.459Z,33.77
2018-02-15T19:49:48.067Z,36.73
2018-02-15T19:52:16.443Z,30.00
2018-02-15T19:54:44.920Z,28.50
2018-02-15T19:57:13.320Z,35.50
2018-02-15T19:59:41.869Z,37.23
2018-02-15T20:02:10.264Z,34.23
2018-02-15T20:04:38.638Z,42.50
2018-02-15T20:07:07.114Z,32.10
2018-02-15T20:09:35.504Z,33.87
2018-02-15T20:12:03.982Z,29.60
2018-02-15T20:14:32.322Z,32.10
2018-02-15T20:17:01.173Z,38.60
2018-02-15T20:19:29.536Z,37.57
2018-02-15T20:21:57.898Z,29.80
2018-02-15T20:24:26.300Z,31.40
2018-02-15T20:27:00.099Z,33.60
2018-02-15T20:29:28.479Z,33.10
2018-02-15T20:31:56.861Z,40.87
2018-02-15T20:34:25.325Z,37.93
2018-02-15T20:36:53.673Z,32.17
2018-02-15T20:39:27.909Z,33.60
2018-02-15T20:41:56.385Z,33.53
2018-02-15T20:44:24.726Z,47.50
2018-02-15T20:46:53.105Z,36.90
2018-02-15T20:49:27.010Z,40.77
2018-02-15T20:52:01.184Z,36.57
2018-02-15T20:54:35.112Z,38.40
2018-02-15T20:57:03.553Z,39.10
2018-02-15T20:59:31.956Z,44.10
2018-02-15T21:02:00.321Z,47.50
2018-02-15T21:04:28.894Z,42.30
2018-02-15T21:06:57.244Z,46.10
2018-02-15T21:09:26.097Z,52.67
2018-02-15T21:11:54.893Z,44.33
2018-02-15T21:14:23.259Z,49.97
2018-02-15T21:16:51.678Z,41.30
2018-02-15T21:19:20.023Z,47.10
2018-02-15T21:21:48.809Z,53.07
2018-02-15T21:24:17.143Z,44.60
2018-02-15T21:26:45.974Z,40.13
2018-02-15T21:29:14.676Z,43.10
2018-02-15T21:31:43.149Z,41.07
2018-02-15T21:34:13.429Z,47.77
2018-02-15T21:36:44.627Z,45.63
2018-02-15T21:39:14.347Z,48.53
2018-02-15T21:41:43.262Z,41.63
2018-02-15T21:44:12.267Z,38.57
2018-02-15T21:46:42.929Z,42.10
2018-02-15T21:49:12.293Z,45.67
2018-02-15T21:51:42.807Z,48.50
2018-02-15T21:54:13.511Z,45.57
2018-02-15T21:56:41.905Z,45.73
2018-02-15T21:59:10.368Z,42.60
2018-02-15T22:01:38.846Z,44.00
2018-02-15T22:04:07.257Z,47.77
2018-02-15T22:06:38.031Z,38.93
2018-02-15T22:09:06.764Z,43.00
2018-02-15T22:11:37.685Z,49.27
2018-02-15T22:14:06.088Z,40.17
2018-02-15T22:16:34.416Z,44.27
2018-02-15T22:19:02.849Z,42.43
2018-02-15T22:21:31.645Z,50.87
2018-02-15T22:24:00.417Z,47.37
2018-02-15T22:26:29.211Z,53.50
2018-02-15T22:28:58.539Z,53.87
2018-02-15T22:31:27.757Z,51.60
2018-02-15T22:33:56.121Z,52.10
2018-02-15T22:36:24.956Z,58.20
2018-02-15T22:38:53.324Z,57.50
2018-02-15T22:41:21.689Z,61.07
2018-02-15T22:43:50.041Z,57.10
2018-02-15T22:46:18.887Z,52.33
2018-02-15T22:48:47.234Z,51.47
2018-02-15T22:51:15.592Z,51.53
2018-02-15T22:53:44.435Z,56.23
2018-02-15T22:56:12.786Z,54.03
2018-02-15T22:58:41.179Z,47.53
2018-02-15T23:01:09.535Z,50.07
2018-02-15T23:03:37.899Z,50.77
2018-02-15T23:06:06.732Z,59.00
2018-02-15T23:08:35.115Z,62.37
2018-02-15T23:11:03.488Z,47.17
2018-02-15T23:13:31.858Z,54.57
2018-02-15T23:16:00.211Z,54.10
2018-02-15T23:18:28.563Z,48.07
2018-02-15T23:20:57.920Z,51.40
2018-02-15T23:23:26.267Z,55.60
2018-02-15T23:25:54.621Z,56.00
2018-02-15T23:28:23.477Z,57.83
2018-02-15T23:30:51.955Z,49.50
2018-02-15T23:33:20.329Z,47.53
2018-02-15T23:35:48.672Z,47.27
2018-02-15T23:38:17.029Z,45.93
2018-02-15T23:40:45.886Z,44.80
2018-02-15T23:43:14.263Z,52.17
2018-02-15T23:45:42.601Z,48.50
2018-02-15T23:48:10.965Z,52.37
2018-02-15T23:50:39.707Z,40.10
2018-02-15T23:53:08.072Z,51.70
2018-02-15T23:55:36.458Z,48.60
2018-02-15T23:58:04.853Z,48.43
